Airfield :
LOGIN :

Register | Disclaimer

   EN    FR    IT 

 










Legend :    VFR   Marginal VFR   IFR   Intensive IFR   Very Intensive IFR
Visi :
Ceiling :
>= 8 km
>= 3000ft
5 to 8 km
1000 to 3000 ft
1500m to 5 km
500 to 1000 ft
800 to 1500m
200 to 500 ft
< 800m
< 200 ft
Symbols :   Thunderstorms  Fog  Heavy snow  Heavy precipitations  Wind > 20 kt
SIGMETs :     Misc.  Thunderstorms  Icing  Turbulence  Mountain Waves  Volcanic Ashes







- Airport Elevation : 587 ft
- IATA code : XCR
- Download approach charts


LFOK - Chalons Vatry

CURRENT METAR :
  • 211130Z AUTO 25013KT 9999 FEW012 BKN018 BKN025 15/12 Q1014 NOSIG

EXPIRED METARs :
  • 211100Z AUTO 25010KT 9999 FEW021 SCT044 BKN054 14/13 Q1014 BECMG 27015G25KT
  • 211030Z AUTO 25011KT 9999 -RA FEW013 BKN036 OVC049 13/12 Q1014 BECMG 27015G25KT
  • 211000Z AUTO 27012KT 9999 -RA FEW008/// OVC030/// ///TCU 12/11 Q1013 BECMG 27015G25KT BKN030
  • 210930Z AUTO 28015KT 8000 -RA SCT012/// SCT017/// OVC024/// ///TCU 13/11 Q1013 BECMG 27015G25KT BKN030
  • 210900Z AUTO 29018KT 9999 FEW007/// SCT014/// BKN021/// ///TCU 13/11 Q1012 BECMG 27015G25KT BKN030

TAF TAF LFOK
Valid from the 21 at 12:00 until the 22 at 12:00 UTC


211100Z 2112/2212 25013KT 9999 SCT040
BECMG 2116/2118 24003KT
No reported NOTAMs for that airfield.



MET'MAP, your aeronautical weather chart ! - Copyright ORBIFLY December 2007 - Disclaimer

ORBIFLY MET'MAP TEAM :

Programming & Development : Alexandra Zaïnal
Concept & Development : Baudouin d'Aumeries
Co-Development & Prog : Marc-Olivier Méhu
Technical & hardware support : Manuel Goepfert

Contact : metmap@orbifly.com




SOURCES & CREDITS :

   NOAA